sensor_id;sensor_type;location;lat;lon;timestamp;pressure;altitude;pressure_sealevel;temperature;humidity
50636;BME280;36598;46.054;11.130;2022-10-26T00:01:11;99746.91;;;16.10;85.02
50636;BME280;36598;46.054;11.130;2022-10-26T00:03:38;99744.50;;;16.25;84.74
50636;BME280;36598;46.054;11.130;2022-10-26T00:06:04;99748.34;;;16.44;83.87
50636;BME280;36598;46.054;11.130;2022-10-26T00:08:29;99751.16;;;16.44;83.73
50636;BME280;36598;46.054;11.130;2022-10-26T00:10:56;99750.47;;;16.40;83.37
50636;BME280;36598;46.054;11.130;2022-10-26T00:13:21;99749.03;;;16.48;82.53
50636;BME280;36598;46.054;11.130;2022-10-26T00:15:47;99747.16;;;16.45;82.65
50636;BME280;36598;46.054;11.130;2022-10-26T00:18:12;99743.56;;;16.44;82.93
50636;BME280;36598;46.054;11.130;2022-10-26T00:20:37;99754.69;;;16.32;83.29
50636;BME280;36598;46.054;11.130;2022-10-26T00:23:02;99754.63;;;16.48;82.37
50636;BME280;36598;46.054;11.130;2022-10-26T00:25:28;99746.78;;;16.43;81.97
50636;BME280;36598;46.054;11.130;2022-10-26T00:27:53;99753.47;;;16.33;82.60
50636;BME280;36598;46.054;11.130;2022-10-26T00:30:18;99748.56;;;16.37;82.62
50636;BME280;36598;46.054;11.130;2022-10-26T00:32:43;99758.41;;;16.41;81.99
50636;BME280;36598;46.054;11.130;2022-10-26T00:35:09;99757.63;;;16.12;82.60
50636;BME280;36598;46.054;11.130;2022-10-26T00:37:34;99756.94;;;15.91;84.59
50636;BME280;36598;46.054;11.130;2022-10-26T00:39:59;99755.63;;;15.63;86.15
50636;BME280;36598;46.054;11.130;2022-10-26T00:42:24;99753.91;;;15.86;85.30
50636;BME280;36598;46.054;11.130;2022-10-26T00:44:54;99752.81;;;16.12;84.15
50636;BME280;36598;46.054;11.130;2022-10-26T00:49:50;99751.78;;;16.06;84.20
50636;BME280;36598;46.054;11.130;2022-10-26T00:52:16;99756.97;;;16.20;83.16
50636;BME280;36598;46.054;11.130;2022-10-26T00:54:43;99752.97;;;16.21;82.80
50636;BME280;36598;46.054;11.130;2022-10-26T00:57:09;99760.50;;;15.92;82.54
50636;BME280;36598;46.054;11.130;2022-10-26T00:59:35;99760.78;;;15.97;82.50
50636;BME280;36598;46.054;11.130;2022-10-26T01:02:00;99758.25;;;16.03;83.09
50636;BME280;36598;46.054;11.130;2022-10-26T01:04:26;99768.72;;;15.99;83.92
50636;BME280;36598;46.054;11.130;2022-10-26T01:06:52;99769.56;;;16.12;83.14
50636;BME280;36598;46.054;11.130;2022-10-26T01:09:18;99766.44;;;16.10;83.36
50636;BME280;36598;46.054;11.130;2022-10-26T01:11:44;99755.44;;;16.03;83.81
50636;BME280;36598;46.054;11.130;2022-10-26T01:14:09;99766.06;;;16.08;83.80
50636;BME280;36598;46.054;11.130;2022-10-26T01:26:56;99757.91;;;15.85;85.14
50636;BME280;36598;46.054;11.130;2022-10-26T01:34:55;99757.16;;;16.13;83.09
50636;BME280;36598;46.054;11.130;2022-10-26T01:37:26;99749.41;;;16.05;83.12
50636;BME280;36598;46.054;11.130;2022-10-26T01:39:57;99747.38;;;15.76;84.76
50636;BME280;36598;46.054;11.130;2022-10-26T01:42:23;99738.59;;;15.58;85.28
50636;BME280;36598;46.054;11.130;2022-10-26T01:44:56;99741.75;;;15.43;86.18
50636;BME280;36598;46.054;11.130;2022-10-26T01:47:24;99743.50;;;15.53;85.79
50636;BME280;36598;46.054;11.130;2022-10-26T01:49:51;99742.63;;;15.57;85.78
50636;BME280;36598;46.054;11.130;2022-10-26T01:52:18;99724.78;;;15.70;84.56
50636;BME280;36598;46.054;11.130;2022-10-26T01:54:43;99724.06;;;15.66;84.45
50636;BME280;36598;46.054;11.130;2022-10-26T01:57:10;99735.94;;;15.70;83.73
50636;BME280;36598;46.054;11.130;2022-10-26T02:15:20;99729.09;;;15.22;84.54
50636;BME280;36598;46.054;11.130;2022-10-26T02:17:50;99727.59;;;15.18;84.53
50636;BME280;36598;46.054;11.130;2022-10-26T02:20:22;99723.38;;;14.93;86.05
50636;BME280;36598;46.054;11.130;2022-10-26T02:22:50;99728.72;;;15.04;85.63
50636;BME280;36598;46.054;11.130;2022-10-26T02:25:19;99717.88;;;15.26;84.54
50636;BME280;36598;46.054;11.130;2022-10-26T02:27:48;99717.41;;;15.27;84.29
50636;BME280;36598;46.054;11.130;2022-10-26T02:30:14;99716.63;;;15.27;84.37
50636;BME280;36598;46.054;11.130;2022-10-26T02:32:40;99707.50;;;15.43;83.51
50636;BME280;36598;46.054;11.130;2022-10-26T02:35:08;99712.38;;;15.39;83.66
50636;BME280;36598;46.054;11.130;2022-10-26T02:37:34;99717.09;;;15.42;83.61
50636;BME280;36598;46.054;11.130;2022-10-26T02:40:02;99713.16;;;15.39;83.97
50636;BME280;36598;46.054;11.130;2022-10-26T02:42:28;99714.28;;;15.58;83.21
50636;BME280;36598;46.054;11.130;2022-10-26T02:44:54;99724.25;;;15.59;83.18
50636;BME280;36598;46.054;11.130;2022-10-26T02:47:21;99717.50;;;15.40;83.58
50636;BME280;36598;46.054;11.130;2022-10-26T02:49:47;99723.28;;;14.97;86.61
50636;BME280;36598;46.054;11.130;2022-10-26T02:55:01;99726.59;;;15.44;84.07
50636;BME280;36598;46.054;11.130;2022-10-26T02:57:28;99727.28;;;15.48;84.46
50636;BME280;36598;46.054;11.130;2022-10-26T02:59:55;99719.53;;;15.56;83.62
50636;BME280;36598;46.054;11.130;2022-10-26T03:02:22;99719.72;;;15.65;83.45
50636;BME280;36598;46.054;11.130;2022-10-26T03:04:48;99724.84;;;15.50;84.18
50636;BME280;36598;46.054;11.130;2022-10-26T03:07:19;99720.75;;;15.55;84.05
50636;BME280;36598;46.054;11.130;2022-10-26T03:09:44;99714.56;;;15.64;83.46
50636;BME280;36598;46.054;11.130;2022-10-26T03:12:09;99722.00;;;15.70;82.67
50636;BME280;36598;46.054;11.130;2022-10-26T03:14:35;99718.81;;;15.36;83.94
50636;BME280;36598;46.054;11.130;2022-10-26T03:17:00;99728.22;;;15.58;83.17
50636;BME280;36598;46.054;11.130;2022-10-26T03:19:25;99723.53;;;15.55;82.74
50636;BME280;36598;46.054;11.130;2022-10-26T03:21:50;99727.03;;;15.43;82.34
50636;BME280;36598;46.054;11.130;2022-10-26T03:24:15;99729.81;;;15.59;81.71
50636;BME280;36598;46.054;11.130;2022-10-26T03:26:41;99728.75;;;15.37;84.25
50636;BME280;36598;46.054;11.130;2022-10-26T03:29:06;99727.66;;;15.50;83.53
50636;BME280;36598;46.054;11.130;2022-10-26T03:31:33;99727.03;;;15.43;84.06
50636;BME280;36598;46.054;11.130;2022-10-26T03:33:58;99718.81;;;15.36;84.71
50636;BME280;36598;46.054;11.130;2022-10-26T03:36:23;99716.56;;;15.47;84.46
50636;BME280;36598;46.054;11.130;2022-10-26T03:38:48;99716.13;;;15.48;84.59
50636;BME280;36598;46.054;11.130;2022-10-26T03:41:14;99719.53;;;15.56;84.23
50636;BME280;36598;46.054;11.130;2022-10-26T03:43:39;99721.25;;;15.50;83.99
50636;BME280;36598;46.054;11.130;2022-10-26T03:46:04;99725.47;;;15.42;84.21
50636;BME280;36598;46.054;11.130;2022-10-26T03:48:29;99734.50;;;15.46;84.20
50636;BME280;36598;46.054;11.130;2022-10-26T03:50:57;99725.53;;;15.22;85.30
50636;BME280;36598;46.054;11.130;2022-10-26T03:53:23;99722.88;;;15.15;85.91
50636;BME280;36598;46.054;11.130;2022-10-26T03:55:49;99734.44;;;14.97;88.01
50636;BME280;36598;46.054;11.130;2022-10-26T03:58:14;99731.66;;;14.97;88.59
50636;BME280;36598;46.054;11.130;2022-10-26T04:00:39;99724.59;;;14.92;89.20
50636;BME280;36598;46.054;11.130;2022-10-26T04:03:04;99726.78;;;15.01;88.56
50636;BME280;36598;46.054;11.130;2022-10-26T04:05:30;99723.22;;;15.00;88.17
50636;BME280;36598;46.054;11.130;2022-10-26T04:07:55;99724.81;;;15.18;87.58
50636;BME280;36598;46.054;11.130;2022-10-26T04:10:21;99725.06;;;15.23;86.61
50636;BME280;36598;46.054;11.130;2022-10-26T04:12:47;99735.63;;;15.32;86.28
50636;BME280;36598;46.054;11.130;2022-10-26T04:15:12;99737.72;;;15.28;86.80
50636;BME280;36598;46.054;11.130;2022-10-26T04:17:38;99735.56;;;15.36;86.14
50636;BME280;36598;46.054;11.130;2022-10-26T04:20:03;99732.31;;;15.37;85.71
50636;BME280;36598;46.054;11.130;2022-10-26T04:22:29;99734.50;;;15.30;85.48
50636;BME280;36598;46.054;11.130;2022-10-26T04:24:54;99737.88;;;14.85;87.70
50636;BME280;36598;46.054;11.130;2022-10-26T04:27:19;99745.91;;;14.63;89.04
50636;BME280;36598;46.054;11.130;2022-10-26T04:29:45;99746.16;;;14.88;88.32
50636;BME280;36598;46.054;11.130;2022-10-26T04:32:10;99742.28;;;15.02;87.24
50636;BME280;36598;46.054;11.130;2022-10-26T04:34:35;99753.44;;;15.02;87.36
50636;BME280;36598;46.054;11.130;2022-10-26T04:37:01;99743.84;;;15.03;87.10
50636;BME280;36598;46.054;11.130;2022-10-26T04:39:26;99747.00;;;15.05;86.68
50636;BME280;36598;46.054;11.130;2022-10-26T04:41:52;99744.03;;;14.96;86.69
50636;BME280;36598;46.054;11.130;2022-10-26T04:44:18;99735.28;;;14.94;86.57
50636;BME280;36598;46.054;11.130;2022-10-26T04:46:43;99738.38;;;14.99;86.00
50636;BME280;36598;46.054;11.130;2022-10-26T04:49:08;99741.66;;;14.94;85.74
50636;BME280;36598;46.054;11.130;2022-10-26T04:51:33;99756.41;;;14.95;85.72
50636;BME280;36598;46.054;11.130;2022-10-26T04:53:59;99765.34;;;14.66;87.09
50636;BME280;36598;46.054;11.130;2022-10-26T04:56:24;99765.41;;;14.19;88.38
50636;BME280;36598;46.054;11.130;2022-10-26T04:58:52;99764.78;;;14.32;88.43
50636;BME280;36598;46.054;11.130;2022-10-26T05:01:17;99764.28;;;14.37;88.42
50636;BME280;36598;46.054;11.130;2022-10-26T05:03:42;99774.38;;;14.50;87.67
50636;BME280;36598;46.054;11.130;2022-10-26T05:06:08;99773.78;;;14.39;87.64
50636;BME280;36598;46.054;11.130;2022-10-26T05:08:33;99778.44;;;14.46;87.75
50636;BME280;36598;46.054;11.130;2022-10-26T05:10:58;99772.81;;;14.49;86.84
50636;BME280;36598;46.054;11.130;2022-10-26T05:13:23;99778.03;;;14.47;87.73
50636;BME280;36598;46.054;11.130;2022-10-26T05:15:51;99778.69;;;14.55;86.89
50636;BME280;36598;46.054;11.130;2022-10-26T05:18:16;99783.34;;;14.38;87.38
50636;BME280;36598;46.054;11.130;2022-10-26T05:20:42;99789.63;;;14.42;87.92
50636;BME280;36598;46.054;11.130;2022-10-26T05:23:08;99791.28;;;14.40;87.35
50636;BME280;36598;46.054;11.130;2022-10-26T05:25:35;99781.50;;;14.32;88.03
50636;BME280;36598;46.054;11.130;2022-10-26T05:28:01;99784.28;;;14.32;88.09
50636;BME280;36598;46.054;11.130;2022-10-26T05:30:27;99784.50;;;14.41;88.78
50636;BME280;36598;46.054;11.130;2022-10-26T05:32:53;99781.47;;;14.55;87.41
50636;BME280;36598;46.054;11.130;2022-10-26T05:35:19;99783.47;;;14.55;87.96
50636;BME280;36598;46.054;11.130;2022-10-26T05:37:44;99788.69;;;14.52;88.82
50636;BME280;36598;46.054;11.130;2022-10-26T05:40:10;99770.66;;;14.77;87.46
50636;BME280;36598;46.054;11.130;2022-10-26T05:42:35;99766.59;;;14.82;87.28
50636;BME280;36598;46.054;11.130;2022-10-26T05:45:00;99766.13;;;14.87;85.98
50636;BME280;36598;46.054;11.130;2022-10-26T05:47:25;99767.47;;;14.78;85.80
50636;BME280;36598;46.054;11.130;2022-10-26T05:49:51;99773.31;;;14.84;86.01
50636;BME280;36598;46.054;11.130;2022-10-26T05:52:16;99774.25;;;14.58;86.77
50636;BME280;36598;46.054;11.130;2022-10-26T05:54:41;99776.50;;;14.43;88.04
50636;BME280;36598;46.054;11.130;2022-10-26T05:57:09;99777.97;;;14.27;88.51
50636;BME280;36598;46.054;11.130;2022-10-26T05:59:35;99771.91;;;14.56;87.87
50636;BME280;36598;46.054;11.130;2022-10-26T06:04:34;99763.13;;;14.58;88.24
50636;BME280;36598;46.054;11.130;2022-10-26T06:07:02;99757.63;;;14.74;87.42
50636;BME280;36598;46.054;11.130;2022-10-26T06:09:28;99760.16;;;14.85;86.17
50636;BME280;36598;46.054;11.130;2022-10-26T06:11:53;99760.75;;;14.96;85.09
50636;BME280;36598;46.054;11.130;2022-10-26T06:14:18;99762.22;;;15.00;85.23
50636;BME280;36598;46.054;11.130;2022-10-26T06:29:39;99782.41;;;15.77;79.04
50636;BME280;36598;46.054;11.130;2022-10-26T06:32:07;99792.03;;;15.56;79.52
50636;BME280;36598;46.054;11.130;2022-10-26T06:34:33;99800.19;;;15.67;78.97
50636;BME280;36598;46.054;11.130;2022-10-26T06:37:00;99799.16;;;15.41;80.63
50636;BME280;36598;46.054;11.130;2022-10-26T06:39:26;99796.22;;;15.48;80.34
50636;BME280;36598;46.054;11.130;2022-10-26T06:41:54;99803.44;;;15.82;78.85
50636;BME280;36598;46.054;11.130;2022-10-26T06:44:21;99813.69;;;16.01;78.21
50636;BME280;36598;46.054;11.130;2022-10-26T06:46:49;99817.03;;;16.12;78.17
50636;BME280;36598;46.054;11.130;2022-10-26T06:51:56;99821.09;;;16.40;75.88
50636;BME280;36598;46.054;11.130;2022-10-26T06:54:28;99826.53;;;16.60;75.47
50636;BME280;36598;46.054;11.130;2022-10-26T06:56:55;99823.94;;;16.82;73.98
50636;BME280;36598;46.054;11.130;2022-10-26T06:59:31;99829.34;;;16.89;74.21
50636;BME280;36598;46.054;11.130;2022-10-26T07:01:59;99837.59;;;17.09;72.76
50636;BME280;36598;46.054;11.130;2022-10-26T07:04:25;99827.41;;;16.57;74.07
50636;BME280;36598;46.054;11.130;2022-10-26T07:06:50;99825.81;;;16.72;73.11
50636;BME280;36598;46.054;11.130;2022-10-26T07:09:15;99823.09;;;17.40;71.21
50636;BME280;36598;46.054;11.130;2022-10-26T07:11:40;99830.91;;;17.45;70.44
50636;BME280;36598;46.054;11.130;2022-10-26T07:14:05;99829.13;;;17.51;70.45
50636;BME280;36598;46.054;11.130;2022-10-26T07:16:31;99839.59;;;17.09;71.88
50636;BME280;36598;46.054;11.130;2022-10-26T07:18:56;99830.59;;;17.81;69.47
50636;BME280;36598;46.054;11.130;2022-10-26T07:21:21;99838.06;;;17.46;70.20
50636;BME280;36598;46.054;11.130;2022-10-26T07:23:47;99836.34;;;17.77;68.41
50636;BME280;36598;46.054;11.130;2022-10-26T07:26:12;99845.72;;;17.96;68.13
50636;BME280;36598;46.054;11.130;2022-10-26T07:28:37;99841.16;;;18.37;66.64
50636;BME280;36598;46.054;11.130;2022-10-26T07:31:03;99843.84;;;18.63;65.65
50636;BME280;36598;46.054;11.130;2022-10-26T07:33:29;99846.50;;;18.44;65.79
50636;BME280;36598;46.054;11.130;2022-10-26T07:35:54;99850.91;;;18.33;66.57
50636;BME280;36598;46.054;11.130;2022-10-26T07:38:20;99857.78;;;18.19;67.13
50636;BME280;36598;46.054;11.130;2022-10-26T07:40:45;99856.13;;;18.56;66.77
50636;BME280;36598;46.054;11.130;2022-10-26T07:43:10;99856.69;;;21.75;56.48
50636;BME280;36598;46.054;11.130;2022-10-26T07:45:36;99859.47;;;22.18;54.02
50636;BME280;36598;46.054;11.130;2022-10-26T07:48:01;99856.84;;;22.14;53.28
50636;BME280;36598;46.054;11.130;2022-10-26T07:50:26;99864.81;;;23.91;47.83
50636;BME280;36598;46.054;11.130;2022-10-26T07:52:52;99860.09;;;23.38;48.59
50636;BME280;36598;46.054;11.130;2022-10-26T07:55:17;99856.47;;;25.25;44.52
50636;BME280;36598;46.054;11.130;2022-10-26T07:57:43;99842.66;;;27.83;39.38
50636;BME280;36598;46.054;11.130;2022-10-26T08:00:08;99852.41;;;25.58;42.82
50636;BME280;36598;46.054;11.130;2022-10-26T08:02:34;99866.22;;;23.66;46.83
50636;BME280;36598;46.054;11.130;2022-10-26T08:04:59;99867.75;;;21.37;52.58
50636;BME280;36598;46.054;11.130;2022-10-26T08:07:25;99861.97;;;20.39;56.31
50636;BME280;36598;46.054;11.130;2022-10-26T08:09:51;99856.63;;;20.32;57.27
50636;BME280;36598;46.054;11.130;2022-10-26T08:12:16;99847.94;;;19.90;58.47
50636;BME280;36598;46.054;11.130;2022-10-26T08:14:41;99842.97;;;21.92;53.04
50636;BME280;36598;46.054;11.130;2022-10-26T08:17:07;99841.50;;;25.51;44.41
50636;BME280;36598;46.054;11.130;2022-10-26T08:19:32;99832.88;;;29.47;36.06
50636;BME280;36598;46.054;11.130;2022-10-26T08:21:58;99846.38;;;26.19;41.64
50636;BME280;36598;46.054;11.130;2022-10-26T08:24:23;99843.16;;;27.70;38.84
50636;BME280;36598;46.054;11.130;2022-10-26T08:26:48;99838.16;;;32.66;30.91
50636;BME280;36598;46.054;11.130;2022-10-26T08:29:13;99839.53;;;34.61;27.25
50636;BME280;36598;46.054;11.130;2022-10-26T08:31:39;99840.56;;;35.53;25.21
50636;BME280;36598;46.054;11.130;2022-10-26T08:34:04;99841.91;;;38.17;22.65
50636;BME280;36598;46.054;11.130;2022-10-26T08:36:29;99843.66;;;35.78;24.85
50636;BME280;36598;46.054;11.130;2022-10-26T08:38:54;99838.41;;;36.23;24.47
50636;BME280;36598;46.054;11.130;2022-10-26T08:41:34;99844.41;;;35.86;24.81
50636;BME280;36598;46.054;11.130;2022-10-26T08:44:10;99840.75;;;37.20;23.43
50636;BME280;36598;46.054;11.130;2022-10-26T08:46:41;99846.06;;;38.06;22.24
50636;BME280;36598;46.054;11.130;2022-10-26T08:49:29;99833.31;;;41.44;18.93
50636;BME280;36598;46.054;11.130;2022-10-26T08:51:56;99838.09;;;38.32;21.26
50636;BME280;36598;46.054;11.130;2022-10-26T08:56:57;99835.09;;;39.55;19.67
50636;BME280;36598;46.054;11.130;2022-10-26T09:01:52;99833.38;;;39.79;20.11
50636;BME280;36598;46.054;11.130;2022-10-26T09:04:18;99845.28;;;38.75;20.70
50636;BME280;36598;46.054;11.130;2022-10-26T09:09:23;99827.06;;;41.69;17.70
50636;BME280;36598;46.054;11.130;2022-10-26T09:17:17;99835.41;;;40.93;18.29
50636;BME280;36598;46.054;11.130;2022-10-26T09:24:51;99830.31;;;38.87;20.25
50636;BME280;36598;46.054;11.130;2022-10-26T09:27:27;99831.63;;;40.52;18.70
50636;BME280;36598;46.054;11.130;2022-10-26T09:29:54;99832.78;;;41.07;18.48
50636;BME280;36598;46.054;11.130;2022-10-26T09:32:22;99830.06;;;41.09;18.50
50636;BME280;36598;46.054;11.130;2022-10-26T09:34:54;99840.31;;;40.91;18.42
50636;BME280;36598;46.054;11.130;2022-10-26T09:37:24;99836.03;;;41.01;18.14
50636;BME280;36598;46.054;11.130;2022-10-26T09:39:54;99831.47;;;42.78;16.16
50636;BME280;36598;46.054;11.130;2022-10-26T09:45:28;99830.44;;;41.66;17.65
50636;BME280;36598;46.054;11.130;2022-10-26T09:47:34;99832.13;;;43.44;16.03
50636;BME280;36598;46.054;11.130;2022-10-26T09:52:30;99829.00;;;40.85;17.78
50636;BME280;36598;46.054;11.130;2022-10-26T09:54:55;99830.84;;;41.82;16.98
50636;BME280;36598;46.054;11.130;2022-10-26T09:57:20;99827.09;;;41.91;16.86
50636;BME280;36598;46.054;11.130;2022-10-26T09:59:46;99824.16;;;41.28;18.27
50636;BME280;36598;46.054;11.130;2022-10-26T10:05:00;99817.94;;;43.27;15.79
50636;BME280;36598;46.054;11.130;2022-10-26T10:07:25;99828.84;;;41.02;17.64
50636;BME280;36598;46.054;11.130;2022-10-26T10:10:07;99820.50;;;43.56;15.67
50636;BME280;36598;46.054;11.130;2022-10-26T10:12:33;99816.78;;;43.20;15.91
50636;BME280;36598;46.054;11.130;2022-10-26T10:14:58;99816.66;;;42.40;16.47
50636;BME280;36598;46.054;11.130;2022-10-26T10:17:24;99810.34;;;39.91;18.27
50636;BME280;36598;46.054;11.130;2022-10-26T10:19:50;99807.53;;;43.71;15.44
50636;BME280;36598;46.054;11.130;2022-10-26T10:24:51;99788.97;;;41.96;16.48
50636;BME280;36598;46.054;11.130;2022-10-26T10:27:17;99787.84;;;42.44;16.52
50636;BME280;36598;46.054;11.130;2022-10-26T10:29:50;99775.94;;;40.15;17.85
50636;BME280;36598;46.054;11.130;2022-10-26T10:32:19;99772.25;;;41.75;17.09
50636;BME280;36598;46.054;11.130;2022-10-26T10:34:45;99774.84;;;43.25;15.85
50636;BME280;36598;46.054;11.130;2022-10-26T10:37:43;99767.22;;;43.91;15.34
50636;BME280;36598;46.054;11.130;2022-10-26T10:40:06;99770.03;;;41.02;17.80
50636;BME280;36598;46.054;11.130;2022-10-26T10:42:33;99767.16;;;41.33;17.36
50636;BME280;36598;46.054;11.130;2022-10-26T10:44:59;99753.97;;;44.13;15.20
50636;BME280;36598;46.054;11.130;2022-10-26T10:47:29;99768.25;;;42.45;16.52
50636;BME280;36598;46.054;11.130;2022-10-26T10:49:57;99761.03;;;44.22;14.93
50636;BME280;36598;46.054;11.130;2022-10-26T10:52:24;99761.94;;;41.00;17.84
50636;BME280;36598;46.054;11.130;2022-10-26T10:54:51;99765.28;;;42.78;16.25
50636;BME280;36598;46.054;11.130;2022-10-26T11:02:16;99752.19;;;42.56;16.07
50636;BME280;36598;46.054;11.130;2022-10-26T11:05:06;99748.72;;;41.19;16.96
50636;BME280;36598;46.054;11.130;2022-10-26T11:07:41;99739.63;;;40.33;17.43
50636;BME280;36598;46.054;11.130;2022-10-26T11:10:10;99740.03;;;35.32;22.08
50636;BME280;36598;46.054;11.130;2022-10-26T11:12:42;99731.69;;;37.19;20.75
50636;BME280;36598;46.054;11.130;2022-10-26T11:15:11;99730.19;;;37.18;20.84
50636;BME280;36598;46.054;11.130;2022-10-26T11:20:23;99725.44;;;38.86;19.45
50636;BME280;36598;46.054;11.130;2022-10-26T11:25:17;99725.03;;;38.11;19.62
50636;BME280;36598;46.054;11.130;2022-10-26T11:27:47;99712.72;;;38.72;19.88
50636;BME280;36598;46.054;11.130;2022-10-26T11:30:18;99716.53;;;38.47;19.97
50636;BME280;36598;46.054;11.130;2022-10-26T11:35:13;99711.81;;;36.73;21.94
50636;BME280;36598;46.054;11.130;2022-10-26T11:37:57;99715.09;;;35.66;22.96
50636;BME280;36598;46.054;11.130;2022-10-26T11:46:27;99726.00;;;32.96;26.34
50636;BME280;36598;46.054;11.130;2022-10-26T11:48:27;99715.13;;;31.28;29.77
50636;BME280;36598;46.054;11.130;2022-10-26T11:50:55;99728.06;;;30.64;30.36
50636;BME280;36598;46.054;11.130;2022-10-26T11:53:28;99722.06;;;30.30;31.11
50636;BME280;36598;46.054;11.130;2022-10-26T11:55:55;99734.34;;;28.50;32.94
50636;BME280;36598;46.054;11.130;2022-10-26T11:58:22;99729.84;;;28.19;33.81
50636;BME280;36598;46.054;11.130;2022-10-26T12:00:50;99723.19;;;28.93;33.69
50636;BME280;36598;46.054;11.130;2022-10-26T12:03:17;99723.56;;;28.79;33.80
50636;BME280;36598;46.054;11.130;2022-10-26T12:05:49;99718.97;;;28.64;34.61
50636;BME280;36598;46.054;11.130;2022-10-26T12:16:34;99720.44;;;27.77;35.88
50636;BME280;36598;46.054;11.130;2022-10-26T12:21:43;99715.16;;;28.04;36.03
50636;BME280;36598;46.054;11.130;2022-10-26T12:29:24;99717.06;;;25.84;37.73
50636;BME280;36598;46.054;11.130;2022-10-26T12:31:50;99712.19;;;26.56;38.18
50636;BME280;36598;46.054;11.130;2022-10-26T12:34:22;99709.91;;;26.77;38.30
50636;BME280;36598;46.054;11.130;2022-10-26T12:36:49;99712.19;;;26.67;38.42
50636;BME280;36598;46.054;11.130;2022-10-26T12:42:08;99698.53;;;26.88;39.00
50636;BME280;36598;46.054;11.130;2022-10-26T12:44:59;99702.94;;;26.94;38.15
50636;BME280;36598;46.054;11.130;2022-10-26T12:52:41;99694.91;;;26.93;38.12
50636;BME280;36598;46.054;11.130;2022-10-26T12:58:38;99695.69;;;26.93;38.45
50636;BME280;36598;46.054;11.130;2022-10-26T13:00:30;99693.09;;;26.84;38.26
50636;BME280;36598;46.054;11.130;2022-10-26T13:08:03;99702.91;;;26.72;40.07
50636;BME280;36598;46.054;11.130;2022-10-26T13:10:30;99703.91;;;26.63;39.18
50636;BME280;36598;46.054;11.130;2022-10-26T13:12:57;99703.28;;;26.14;39.91
50636;BME280;36598;46.054;11.130;2022-10-26T13:15:25;99699.91;;;26.16;39.86
50636;BME280;36598;46.054;11.130;2022-10-26T13:18:07;99699.38;;;26.01;39.41
50636;BME280;36598;46.054;11.130;2022-10-26T13:20:35;99697.34;;;26.18;39.52
50636;BME280;36598;46.054;11.130;2022-10-26T13:23:01;99697.84;;;26.16;40.02
50636;BME280;36598;46.054;11.130;2022-10-26T13:25:38;99700.38;;;26.03;39.49
50636;BME280;36598;46.054;11.130;2022-10-26T13:28:29;99697.81;;;26.00;40.41
50636;BME280;36598;46.054;11.130;2022-10-26T13:30:51;99698.88;;;25.65;40.14
50636;BME280;36598;46.054;11.130;2022-10-26T13:33:18;99697.00;;;25.51;40.46
50636;BME280;36598;46.054;11.130;2022-10-26T13:35:46;99695.97;;;25.48;40.87
50636;BME280;36598;46.054;11.130;2022-10-26T13:38:11;99701.94;;;25.56;41.00
50636;BME280;36598;46.054;11.130;2022-10-26T13:40:39;99699.97;;;25.73;41.56
50636;BME280;36598;46.054;11.130;2022-10-26T13:43:05;99695.59;;;25.72;40.69
50636;BME280;36598;46.054;11.130;2022-10-26T13:45:57;99693.66;;;25.52;40.90
50636;BME280;36598;46.054;11.130;2022-10-26T13:48:29;99690.56;;;25.44;42.20
50636;BME280;36598;46.054;11.130;2022-10-26T13:51:01;99695.38;;;25.33;42.83
50636;BME280;36598;46.054;11.130;2022-10-26T13:55:54;99688.59;;;25.19;42.77
50636;BME280;36598;46.054;11.130;2022-10-26T13:58:36;99691.09;;;25.11;43.53
50636;BME280;36598;46.054;11.130;2022-10-26T14:03:35;99685.16;;;24.83;43.43
50636;BME280;36598;46.054;11.130;2022-10-26T14:08:35;99679.56;;;24.89;43.12
50636;BME280;36598;46.054;11.130;2022-10-26T14:11:00;99685.56;;;24.70;43.12
50636;BME280;36598;46.054;11.130;2022-10-26T14:13:27;99687.47;;;24.53;43.72
50636;BME280;36598;46.054;11.130;2022-10-26T14:15:53;99684.75;;;24.64;43.90
50636;BME280;36598;46.054;11.130;2022-10-26T14:18:21;99683.66;;;24.56;43.51
50636;BME280;36598;46.054;11.130;2022-10-26T14:20:49;99688.09;;;24.63;43.35
50636;BME280;36598;46.054;11.130;2022-10-26T14:23:53;99691.34;;;24.56;43.22
50636;BME280;36598;46.054;11.130;2022-10-26T14:26:17;99683.88;;;24.32;44.31
50636;BME280;36598;46.054;11.130;2022-10-26T14:28:44;99684.13;;;24.29;44.96
50636;BME280;36598;46.054;11.130;2022-10-26T14:31:12;99687.44;;;24.27;44.45
50636;BME280;36598;46.054;11.130;2022-10-26T14:33:37;99697.28;;;23.91;44.81
50636;BME280;36598;46.054;11.130;2022-10-26T14:36:03;99699.41;;;23.96;44.63
50636;BME280;36598;46.054;11.130;2022-10-26T14:38:29;99693.59;;;23.64;45.76
50636;BME280;36598;46.054;11.130;2022-10-26T14:40:57;99695.06;;;23.60;45.82
50636;BME280;36598;46.054;11.130;2022-10-26T14:43:23;99706.72;;;23.32;45.90
50636;BME280;36598;46.054;11.130;2022-10-26T14:45:50;99714.53;;;23.22;46.66
50636;BME280;36598;46.054;11.130;2022-10-26T14:50:55;99710.66;;;22.75;47.74
50636;BME280;36598;46.054;11.130;2022-10-26T14:53:21;99715.13;;;22.82;48.37
50636;BME280;36598;46.054;11.130;2022-10-26T14:55:50;99712.41;;;22.58;48.54
50636;BME280;36598;46.054;11.130;2022-10-26T14:58:20;99719.47;;;22.39;48.34
50636;BME280;36598;46.054;11.130;2022-10-26T15:00:46;99720.91;;;22.34;48.81
50636;BME280;36598;46.054;11.130;2022-10-26T15:03:16;99721.25;;;22.51;49.19
50636;BME280;36598;46.054;11.130;2022-10-26T15:05:41;99721.41;;;22.33;49.74
50636;BME280;36598;46.054;11.130;2022-10-26T15:10:51;99728.75;;;22.15;52.26
50636;BME280;36598;46.054;11.130;2022-10-26T15:13:29;99728.91;;;21.88;53.99
50636;BME280;36598;46.054;11.130;2022-10-26T15:15:56;99728.16;;;21.63;54.27
50636;BME280;36598;46.054;11.130;2022-10-26T15:18:24;99738.63;;;21.63;54.96